KRWL/RWL METAR and TAF weather

Enter ICAO airport designator
Station Type Date Time Source
KRWL METAR 2022/08/12 15:53 UTC NOAA

KRWL 121553Z AUTO 10006KT 10SM CLR 23/12 A3039 RMK AO2 SLP183 T02330117 TSNO


Station Type Date Time Source
KRWL Decoded METAR 2022/08/12 15:53 UTC NOAA

RAWLINS MUNICIPAL AIRPORT, WY, United States (KRWL) 41-48N 107-12W
Aug 12, 2022 - 11:53 AM EDT / 2022.08.12 1553 UTC
Wind: from the E (100 degrees) at 7 MPH (6 KT):0
Visibility: 10 mile(s):0
Sky conditions: clear
Temperature: 73.9 F (23.3 C)
Dew Point: 53.1 F (11.7 C)
Relative Humidity: 48%
Pressure (altimeter): 30.39 in. Hg (1029 hPa)
ob: KRWL 121553Z AUTO 10006KT 10SM CLR 23/12 A3039 RMK AO2 SLP183 T02330117 TSNO
cycle: 16

Station Type Date Time Source
KRWL TAF 2022/08/12 12:22 UTC NOAA

TAF KRWL 121120Z 1212/1312 25008KT P6SM VCSH BKN100
FM121900 VRB05KT P6SM VCTS BKN050CB OVC100
FM130100 12008KT P6SM VCTS BKN080CB BKN100 OVC250
FM130600 VRB05KT P6SM SCT100 BKN200

Example: see airport list